Time;durP1;ratioP1;P1;durP2;ratioP2;P2;SDS_P1;SDS_P2;PMS_P1;PMS_P2;Temp;Humidity;BMP_temperature;BMP_pressure;BME280_temperature;BME280_humidity;BME280_pressure;Samples;Min_cycle;Max_cycle;Signal;HPM_P1;HPM_P2
2023/06/22 00:00:53;;;;;;;8.77;7.82;;;21.80;99.90;;;;;;4993995;28;20183;-36
2023/06/22 00:03:22;;;;;;;8.38;6.80;;;21.80;99.90;;;;;;5023169;28;20187;-36
2023/06/22 00:05:49;;;;;;;8.93;7.88;;;21.80;99.90;;;;;;4995522;28;20202;-36
2023/06/22 00:08:17;;;;;;;8.73;7.80;;;21.60;99.90;;;;;;4996109;28;20211;-36
2023/06/22 00:10:44;;;;;;;11.07;8.38;;;21.60;99.90;;;;;;4996004;28;20179;-37
2023/06/22 00:13:11;;;;;;;9.02;7.00;;;21.60;99.90;;;;;;4995673;28;20179;-36
2023/06/22 00:15:40;;;;;;;9.05;8.00;;;21.50;99.90;;;;;;4995694;28;20187;-37
2023/06/22 00:18:07;;;;;;;9.50;7.60;;;21.50;99.90;;;;;;4995895;28;20581;-38
2023/06/22 00:20:36;;;;;;;8.20;7.30;;;21.50;99.90;;;;;;4995619;28;20187;-33
2023/06/22 00:23:07;;;;;;;12.23;7.82;;;21.40;99.90;;;;;;4984248;28;20271;-38
2023/06/22 00:25:42;;;;;;;8.63;7.07;;;21.40;99.90;;;;;;5011938;28;20183;-32
2023/06/22 00:28:08;;;;;;;12.65;7.80;;;21.30;99.90;;;;;;5008443;28;20218;-34
2023/06/22 00:30:35;;;;;;;8.23;7.00;;;21.30;99.90;;;;;;4996024;28;20273;-36
2023/06/22 00:33:01;;;;;;;8.38;7.45;;;21.20;99.90;;;;;;4995608;28;20175;-36
2023/06/22 00:35:30;;;;;;;11.60;7.88;;;21.30;99.90;;;;;;4995983;28;20183;-39
2023/06/22 00:38:04;;;;;;;10.02;7.30;;;21.30;99.90;;;;;;4992869;28;20254;-34
2023/06/22 00:40:32;;;;;;;9.55;7.75;;;21.30;99.90;;;;;;4992519;28;20174;-34
2023/06/22 00:42:58;;;;;;;10.23;7.45;;;21.20;99.90;;;;;;4992196;28;20276;-32
2023/06/22 00:45:25;;;;;;;8.32;6.80;;;21.20;99.90;;;;;;4992372;28;20172;-38
2023/06/22 00:47:52;;;;;;;8.23;7.35;;;21.10;99.90;;;;;;5006270;28;20202;-40
2023/06/22 00:50:22;;;;;;;9.60;7.53;;;21.00;99.90;;;;;;4997865;28;20226;-36
2023/06/22 00:52:51;;;;;;;10.77;7.95;;;21.00;99.90;;;;;;4999177;28;20191;-37
2023/06/22 00:55:19;;;;;;;8.32;7.45;;;20.80;99.90;;;;;;4999028;28;20202;-36
2023/06/22 00:57:48;;;;;;;8.75;7.38;;;20.70;99.90;;;;;;4998713;28;20211;-34
2023/06/22 01:00:17;;;;;;;9.10;7.47;;;20.80;99.90;;;;;;4998837;28;20205;-35
2023/06/22 01:02:46;;;;;;;9.40;8.07;;;20.70;99.90;;;;;;5015860;28;20184;-36
2023/06/22 01:05:16;;;;;;;8.07;7.28;;;20.80;99.90;;;;;;5015245;28;20644;-37
2023/06/22 01:07:55;;;;;;;9.88;7.65;;;20.80;99.90;;;;;;5011408;28;20215;-38
2023/06/22 01:10:33;;;;;;;10.45;7.32;;;20.80;99.90;;;;;;4995580;28;20179;-34
2023/06/22 01:13:04;;;;;;;12.50;8.02;;;20.80;99.90;;;;;;4995466;28;20184;-35
2023/06/22 01:15:51;;;;;;;13.15;8.20;;;20.80;99.90;;;;;;4995779;28;20176;-37
2023/06/22 01:18:18;;;;;;;8.50;7.60;;;20.80;99.90;;;;;;4998299;28;20215;-33
2023/06/22 01:20:45;;;;;;;8.85;7.78;;;20.80;99.90;;;;;;4998599;28;20183;-36
2023/06/22 01:23:35;;;;;;;9.02;7.57;;;20.90;99.90;;;;;;4998690;28;20175;-36
2023/06/22 01:26:41;;;;;;;8.48;7.22;;;20.90;99.90;;;;;;5031196;28;20222;-34
2023/06/22 01:29:11;;;;;;;10.70;8.60;;;20.90;99.90;;;;;;4998225;28;20202;-37
2023/06/22 01:31:39;;;;;;;9.52;8.40;;;20.90;99.90;;;;;;4998662;28;20278;-36
2023/06/22 01:34:07;;;;;;;12.35;9.05;;;20.90;99.90;;;;;;4998408;28;20187;-37
2023/06/22 01:36:36;;;;;;;9.95;8.95;;;21.00;99.90;;;;;;4998391;28;20207;-33
2023/06/22 01:39:04;;;;;;;9.43;8.23;;;21.00;99.90;;;;;;4998322;28;20183;-36
2023/06/22 01:41:34;;;;;;;11.32;8.40;;;21.00;99.90;;;;;;4996607;28;20190;-35
2023/06/22 01:44:02;;;;;;;10.20;9.20;;;21.00;99.90;;;;;;5012132;28;20214;-37
2023/06/22 01:46:29;;;;;;;11.52;8.55;;;21.00;99.90;;;;;;5008848;28;20287;-38
2023/06/22 01:48:55;;;;;;;8.95;7.88;;;20.90;99.90;;;;;;4996077;28;20194;-34
2023/06/22 01:51:22;;;;;;;9.60;7.63;;;20.90;99.90;;;;;;4995980;28;20175;-38
2023/06/22 01:53:48;;;;;;;9.40;8.18;;;20.90;99.90;;;;;;5020157;28;20346;-37
2023/06/22 01:56:17;;;;;;;9.35;7.90;;;20.80;99.90;;;;;;4992509;28;20191;-38
2023/06/22 01:59:07;;;;;;;10.57;8.50;;;20.70;99.90;;;;;;4992477;28;20227;-33
2023/06/22 02:01:48;;;;;;;11.82;8.55;;;20.60;99.90;;;;;;5016950;28;20338;-37
2023/06/22 02:04:20;;;;;;;11.73;8.40;;;20.60;99.90;;;;;;5004589;28;20187;-36
2023/06/22 02:06:50;;;;;;;11.32;8.18;;;20.50;99.90;;;;;;4995629;28;20245;-39
2023/06/22 02:09:19;;;;;;;13.20;9.45;;;20.50;99.90;;;;;;5007707;28;20188;-37
2023/06/22 02:11:47;;;;;;;11.75;8.70;;;20.40;99.90;;;;;;5000181;28;20190;-37
2023/06/22 02:14:14;;;;;;;10.48;8.40;;;20.40;99.90;;;;;;4987782;28;20203;-37
2023/06/22 02:16:42;;;;;;;12.48;8.00;;;20.40;99.90;;;;;;4995242;28;20226;-36
2023/06/22 02:19:08;;;;;;;9.38;8.48;;;20.40;99.90;;;;;;5009073;28;20232;-38
2023/06/22 02:21:34;;;;;;;10.38;8.18;;;20.30;99.90;;;;;;5006523;28;20678;-33
2023/06/22 02:24:00;;;;;;;10.75;8.93;;;20.30;99.90;;;;;;5014110;28;20184;-35
2023/06/22 02:26:30;;;;;;;11.63;8.98;;;20.30;99.90;;;;;;5008385;28;20267;-35
2023/06/22 02:28:56;;;;;;;9.98;8.50;;;20.30;99.90;;;;;;4998465;28;20188;-34
2023/06/22 02:31:30;;;;;;;9.25;8.15;;;20.20;99.90;;;;;;4999173;28;20172;-37
2023/06/22 02:33:59;;;;;;;9.50;8.15;;;20.20;99.90;;;;;;4994608;28;20187;-41
2023/06/22 02:36:27;;;;;;;9.68;8.60;;;20.20;99.90;;;;;;4993999;28;20186;-35
2023/06/22 02:38:54;;;;;;;9.88;8.65;;;20.30;99.90;;;;;;5008253;28;20248;-32
2023/06/22 02:41:20;;;;;;;11.82;8.40;;;20.20;99.90;;;;;;5003224;28;20180;-39
2023/06/22 02:43:48;;;;;;;9.25;8.23;;;20.10;99.90;;;;;;4995533;28;20182;-39
2023/06/22 02:46:15;;;;;;;12.63;9.32;;;20.20;99.90;;;;;;4994923;28;20253;-37
2023/06/22 02:48:41;;;;;;;9.15;8.07;;;20.10;99.90;;;;;;4994903;28;20194;-34
2023/06/22 02:51:08;;;;;;;11.65;8.05;;;20.10;99.90;;;;;;4992215;28;20203;-41
2023/06/22 02:53:36;;;;;;;9.38;8.48;;;20.10;99.90;;;;;;5022045;28;20180;-35
2023/06/22 02:56:05;;;;;;;14.07;8.75;;;20.00;99.90;;;;;;5011138;28;20175;-35
2023/06/22 02:58:38;;;;;;;11.15;8.73;;;19.90;99.90;;;;;;4996409;28;20215;-37
2023/06/22 03:01:07;;;;;;;12.93;8.10;;;19.90;99.90;;;;;;5022899;28;20196;-36
2023/06/22 03:03:36;;;;;;;13.93;9.38;;;19.80;99.90;;;;;;5017737;28;20179;-39
2023/06/22 03:06:02;;;;;;;9.20;8.20;;;19.70;99.90;;;;;;5008874;28;20179;-37
2023/06/22 03:08:29;;;;;;;12.90;8.55;;;19.70;99.90;;;;;;5004003;28;20203;-38
2023/06/22 03:10:56;;;;;;;9.38;8.43;;;19.70;99.90;;;;;;4993747;28;20195;-40
2023/06/22 03:13:22;;;;;;;9.60;8.02;;;19.70;99.90;;;;;;4986396;28;20179;-38
2023/06/22 03:15:48;;;;;;;9.80;8.48;;;19.70;99.90;;;;;;4994408;28;20187;-36
2023/06/22 03:18:15;;;;;;;9.68;8.10;;;19.60;99.90;;;;;;4993739;28;20213;-37
2023/06/22 03:20:41;;;;;;;11.80;8.77;;;19.60;99.90;;;;;;4981858;28;20180;-34
2023/06/22 03:23:08;;;;;;;12.18;8.40;;;19.50;99.90;;;;;;4993400;28;20207;-34
2023/06/22 03:25:35;;;;;;;13.77;8.30;;;19.40;99.90;;;;;;4992608;28;20171;-33
2023/06/22 03:28:01;;;;;;;9.60;8.60;;;19.40;99.90;;;;;;4992634;28;20289;-36
2023/06/22 03:30:27;;;;;;;12.05;8.18;;;19.40;99.90;;;;;;4993646;28;20270;-35
2023/06/22 03:32:54;;;;;;;10.57;7.80;;;19.40;99.90;;;;;;4990982;28;20187;-35
2023/06/22 03:35:20;;;;;;;11.48;8.65;;;19.40;99.90;;;;;;5010173;28;20237;-37
2023/06/22 03:37:46;;;;;;;11.80;8.25;;;19.40;99.90;;;;;;4993913;28;20214;-37
2023/06/22 03:40:12;;;;;;;13.20;8.65;;;19.30;99.90;;;;;;4993943;28;20179;-34
2023/06/22 03:42:39;;;;;;;9.40;8.27;;;19.20;99.90;;;;;;4994351;28;20185;-39
2023/06/22 03:45:05;;;;;;;12.65;9.18;;;19.30;99.90;;;;;;4993996;28;20179;-35
2023/06/22 03:47:32;;;;;;;13.00;9.10;;;19.20;99.90;;;;;;4994069;28;20210;-35
2023/06/22 03:49:58;;;;;;;13.05;9.23;;;19.20;99.90;;;;;;4992919;28;20194;-37
2023/06/22 03:52:25;;;;;;;11.43;9.25;;;19.30;99.90;;;;;;4993761;28;20188;-36
2023/06/22 03:54:51;;;;;;;13.98;9.20;;;19.30;99.90;;;;;;4990658;28;20180;-36
2023/06/22 03:57:17;;;;;;;12.15;9.02;;;19.30;99.90;;;;;;5010030;28;20207;-38
2023/06/22 03:59:42;;;;;;;12.40;9.50;;;19.30;99.90;;;;;;4990757;28;20203;-35
2023/06/22 04:02:09;;;;;;;11.52;9.07;;;19.30;99.90;;;;;;5007858;28;20202;-34
2023/06/22 04:04:35;;;;;;;12.98;8.70;;;19.30;99.90;;;;;;4990435;28;20175;-37
2023/06/22 04:07:01;;;;;;;11.80;9.00;;;19.30;99.90;;;;;;4984138;28;20225;-34
2023/06/22 04:09:26;;;;;;;13.13;8.85;;;19.40;99.90;;;;;;5003283;28;20187;-34
2023/06/22 04:11:53;;;;;;;10.55;8.93;;;19.40;99.90;;;;;;5008542;28;20254;-36
2023/06/22 04:14:19;;;;;;;12.77;9.10;;;19.40;99.90;;;;;;4997862;28;20250;-40
2023/06/22 04:16:47;;;;;;;10.73;8.40;;;19.40;99.90;;;;;;5011791;28;20211;-36
2023/06/22 04:19:17;;;;;;;11.65;9.57;;;19.40;99.90;;;;;;5009393;28;20189;-39
2023/06/22 04:21:44;;;;;;;12.15;9.00;;;19.40;99.90;;;;;;5003695;28;20186;-36
2023/06/22 04:24:11;;;;;;;12.73;8.02;;;19.40;99.90;;;;;;5002269;28;20222;-35
2023/06/22 04:26:41;;;;;;;9.30;8.40;;;19.40;99.90;;;;;;5021029;28;20200;-40
2023/06/22 04:29:08;;;;;;;14.25;9.45;;;19.40;99.90;;;;;;5020239;28;20175;-39
2023/06/22 04:31:38;;;;;;;14.18;9.70;;;19.50;99.90;;;;;;4998286;28;20202;-35
2023/06/22 04:34:06;;;;;;;10.68;9.38;;;19.50;99.90;;;;;;4989067;28;20180;-36
2023/06/22 04:36:40;;;;;;;11.30;9.07;;;19.60;99.90;;;;;;4991622;28;20286;-36
2023/06/22 04:39:09;;;;;;;13.25;10.07;;;19.70;99.90;;;;;;4995597;28;20181;-37
2023/06/22 04:41:42;;;;;;;12.32;9.38;;;19.70;99.90;;;;;;4977779;28;20187;-34
2023/06/22 04:44:12;;;;;;;11.80;10.23;;;19.70;99.90;;;;;;5025258;28;20187;-35
2023/06/22 04:46:39;;;;;;;15.48;9.38;;;19.70;99.90;;;;;;5009857;28;20276;-36
2023/06/22 04:49:09;;;;;;;11.68;9.63;;;19.80;99.90;;;;;;5012292;28;20176;-39
2023/06/22 04:51:42;;;;;;;9.88;8.80;;;19.80;99.90;;;;;;4997089;28;20229;-38
2023/06/22 04:54:09;;;;;;;13.45;10.25;;;19.80;99.90;;;;;;4988585;28;20179;-37
2023/06/22 04:56:35;;;;;;;10.40;9.32;;;19.90;99.90;;;;;;5018985;28;20195;-36
2023/06/22 04:59:03;;;;;;;11.27;9.77;;;19.90;99.90;;;;;;4983069;28;20259;-37
2023/06/22 05:01:31;;;;;;;11.50;10.02;;;20.00;99.90;;;;;;5012989;28;20183;-38
2023/06/22 05:04:00;;;;;;;13.52;10.10;;;20.10;99.90;;;;;;4988944;28;20204;-35
2023/06/22 05:06:28;;;;;;;11.02;9.60;;;20.10;99.90;;;;;;5018448;28;20219;-38
2023/06/22 05:08:59;;;;;;;11.48;10.27;;;20.20;99.90;;;;;;5012559;28;20172;-38
2023/06/22 05:11:29;;;;;;;13.52;10.60;;;20.20;99.90;;;;;;5021119;28;20211;-36
2023/06/22 05:13:56;;;;;;;18.83;10.70;;;20.30;99.90;;;;;;5002889;28;20270;-38
2023/06/22 05:16:25;;;;;;;11.48;9.93;;;20.30;99.90;;;;;;4985797;28;20211;-38
2023/06/22 05:18:55;;;;;;;10.57;9.48;;;20.40;99.90;;;;;;5025427;28;20306;-35
2023/06/22 05:21:25;;;;;;;13.02;10.20;;;20.50;99.90;;;;;;5015502;28;20183;-38
2023/06/22 05:23:53;;;;;;;12.93;10.15;;;20.60;99.90;;;;;;4984942;28;20184;-38
2023/06/22 05:26:20;;;;;;;11.57;9.73;;;20.70;99.90;;;;;;4991134;28;20238;-40
2023/06/22 05:28:46;;;;;;;12.13;10.43;;;20.80;99.90;;;;;;4996374;28;20183;-34
2023/06/22 05:31:16;;;;;;;13.23;9.77;;;20.80;99.90;;;;;;4985542;28;20323;-35
2023/06/22 05:33:43;;;;;;;12.75;9.82;;;21.00;99.90;;;;;;4996174;28;20274;-38
2023/06/22 05:36:09;;;;;;;12.65;9.82;;;21.10;99.90;;;;;;4994285;28;20195;-40
2023/06/22 05:38:36;;;;;;;11.05;9.75;;;21.20;99.90;;;;;;4990798;28;20211;-39
2023/06/22 05:41:02;;;;;;;10.82;9.65;;;21.40;99.90;;;;;;5007278;28;20184;-35
2023/06/22 05:43:28;;;;;;;13.38;9.35;;;21.40;99.90;;;;;;4996179;28;20267;-35
2023/06/22 05:45:54;;;;;;;13.00;9.57;;;21.50;99.90;;;;;;4995969;28;20187;-36
2023/06/22 05:48:20;;;;;;;14.30;10.07;;;21.60;99.90;;;;;;4992563;28;20238;-41
2023/06/22 05:50:48;;;;;;;11.13;9.13;;;21.60;99.90;;;;;;4984371;28;20192;-38
2023/06/22 05:53:14;;;;;;;13.32;9.75;;;21.70;99.90;;;;;;4984372;28;20198;-38
2023/06/22 05:55:40;;;;;;;14.30;9.10;;;21.80;99.90;;;;;;5011977;28;20184;-36
2023/06/22 05:58:07;;;;;;;12.43;9.68;;;21.90;99.90;;;;;;4985734;28;20219;-36
2023/06/22 06:00:33;;;;;;;13.48;10.07;;;21.90;99.90;;;;;;5000444;28;20183;-38
2023/06/22 06:03:03;;;;;;;12.45;9.60;;;22.00;99.90;;;;;;5000974;28;20187;-41
2023/06/22 06:05:34;;;;;;;15.63;11.02;;;22.10;99.90;;;;;;5011665;28;20219;-37
2023/06/22 06:08:03;;;;;;;12.13;10.25;;;22.20;99.90;;;;;;5020289;28;20219;-38
2023/06/22 06:10:36;;;;;;;12.15;10.13;;;22.30;99.90;;;;;;4994877;28;20192;-40
2023/06/22 06:13:04;;;;;;;11.98;9.70;;;22.20;99.90;;;;;;5009884;28;20175;-37
2023/06/22 06:15:30;;;;;;;11.75;9.88;;;22.30;99.90;;;;;;4998326;28;20183;-37
2023/06/22 06:17:56;;;;;;;12.43;10.10;;;22.40;99.90;;;;;;4995835;28;20261;-38
2023/06/22 06:20:24;;;;;;;12.45;9.98;;;22.50;99.90;;;;;;4995460;28;20222;-36
2023/06/22 06:22:50;;;;;;;11.73;9.40;;;22.50;99.90;;;;;;5004848;28;20196;-40
2023/06/22 06:25:18;;;;;;;14.75;10.48;;;22.50;99.90;;;;;;4992892;28;20221;-37
2023/06/22 06:27:45;;;;;;;11.50;10.25;;;22.60;99.90;;;;;;4981049;28;20212;-37
2023/06/22 06:30:13;;;;;;;12.95;9.18;;;22.70;99.90;;;;;;4993583;28;20210;-39
2023/06/22 06:32:39;;;;;;;12.65;8.48;;;22.80;99.90;;;;;;4989910;28;20200;-38
2023/06/22 06:35:09;;;;;;;14.32;9.63;;;23.00;99.90;;;;;;5011123;28;20187;-38
2023/06/22 06:37:37;;;;;;;13.07;9.35;;;23.20;99.90;;;;;;4986621;28;20357;-39
2023/06/22 06:40:10;;;;;;;9.75;8.43;;;23.30;99.90;;;;;;4991831;28;20180;-35
2023/06/22 06:42:54;;;;;;;9.60;8.60;;;23.50;99.90;;;;;;5000039;28;20274;-40
2023/06/22 06:45:22;;;;;;;11.00;7.72;;;23.60;99.90;;;;;;4991843;28;20187;-37
2023/06/22 06:47:50;;;;;;;11.48;8.07;;;23.80;99.90;;;;;;4995020;28;20203;-41
2023/06/22 06:50:16;;;;;;;10.30;7.90;;;23.90;99.90;;;;;;5003007;28;20198;-42
2023/06/22 06:52:42;;;;;;;9.60;6.95;;;24.00;99.90;;;;;;5011191;28;20183;-38
2023/06/22 06:55:12;;;;;;;9.20;6.90;;;24.10;99.90;;;;;;4994938;28;20205;-38
2023/06/22 06:57:39;;;;;;;8.93;6.10;;;24.30;99.90;;;;;;4986415;28;20230;-39
2023/06/22 07:00:11;;;;;;;10.18;6.32;;;24.40;99.90;;;;;;4994520;28;20269;-36
2023/06/22 07:02:39;;;;;;;7.35;6.45;;;24.60;99.90;;;;;;5006046;28;20190;-37
2023/06/22 07:05:06;;;;;;;7.28;6.50;;;24.80;99.90;;;;;;4993654;28;20212;-38
2023/06/22 07:07:32;;;;;;;8.38;6.03;;;24.80;99.90;;;;;;4999073;28;20211;-40
2023/06/22 07:09:58;;;;;;;11.00;5.90;;;25.00;99.90;;;;;;4994845;28;20261;-37
2023/06/22 07:12:24;;;;;;;7.95;5.60;;;25.10;99.90;;;;;;5007661;28;20180;-38
2023/06/22 07:14:50;;;;;;;8.70;5.68;;;25.30;99.90;;;;;;4997194;28;20183;-39
2023/06/22 07:17:16;;;;;;;7.10;6.35;;;25.40;99.90;;;;;;4994037;28;20282;-40
2023/06/22 07:19:42;;;;;;;8.98;5.68;;;25.50;99.90;;;;;;4994301;28;20187;-39
2023/06/22 07:22:08;;;;;;;9.15;5.68;;;25.60;99.90;;;;;;4985433;28;20214;-38
2023/06/22 07:24:34;;;;;;;9.52;5.88;;;25.80;99.90;;;;;;5010320;28;20195;-39
2023/06/22 07:27:00;;;;;;;8.27;5.82;;;25.90;99.90;;;;;;4994285;28;20214;-39
2023/06/22 07:29:26;;;;;;;9.05;6.03;;;26.00;99.90;;;;;;4990724;28;20188;-39
2023/06/22 07:31:52;;;;;;;9.73;5.82;;;26.10;99.90;;;;;;5006099;28;20184;-39
2023/06/22 07:34:19;;;;;;;7.80;5.95;;;26.20;99.90;;;;;;4994285;28;20221;-42
2023/06/22 07:36:46;;;;;;;9.35;5.25;;;26.30;99.90;;;;;;4988539;28;20216;-40
2023/06/22 07:39:12;;;;;;;11.40;5.72;;;26.30;99.90;;;;;;5008887;28;20218;-37
2023/06/22 07:41:40;;;;;;;8.95;5.65;;;26.40;99.90;;;;;;5003983;28;20183;-39
2023/06/22 07:44:06;;;;;;;10.10;5.82;;;26.50;99.90;;;;;;4993647;28;20215;-37
2023/06/22 07:46:33;;;;;;;9.40;5.93;;;26.50;99.90;;;;;;5006926;28;20243;-39
2023/06/22 07:48:59;;;;;;;11.52;6.40;;;26.60;99.90;;;;;;4990659;28;20294;-39
2023/06/22 07:51:25;;;;;;;9.02;6.40;;;26.70;99.90;;;;;;4998435;28;20233;-37
2023/06/22 07:53:51;;;;;;;12.20;6.78;;;26.70;99.90;;;;;;4990514;28;20184;-39
2023/06/22 07:56:20;;;;;;;10.40;6.15;;;26.70;99.90;;;;;;4990169;28;20190;-37
2023/06/22 07:58:47;;;;;;;9.93;6.05;;;26.70;99.90;;;;;;5009971;28;20214;-40
2023/06/22 08:01:14;;;;;;;10.30;6.28;;;26.60;99.90;;;;;;5008543;28;20183;-37
2023/06/22 08:03:40;;;;;;;11.60;6.20;;;26.50;99.90;;;;;;4998568;28;20191;-40
2023/06/22 08:06:09;;;;;;;10.98;6.45;;;26.50;99.90;;;;;;4998473;28;20188;-38
2023/06/22 08:08:35;;;;;;;9.55;6.03;;;26.70;99.90;;;;;;4989887;28;20261;-40
2023/06/22 08:11:01;;;;;;;8.43;5.68;;;26.60;99.90;;;;;;5009744;28;20191;-36
2023/06/22 08:13:27;;;;;;;14.70;5.95;;;26.60;99.90;;;;;;4990500;28;20310;-40
2023/06/22 08:15:53;;;;;;;10.00;6.25;;;26.60;99.90;;;;;;4980834;28;20197;-39
2023/06/22 08:18:19;;;;;;;8.68;6.30;;;26.50;99.90;;;;;;4993402;28;20219;-38
2023/06/22 08:20:45;;;;;;;8.20;6.57;;;26.50;99.90;;;;;;5020846;28;20223;-38
2023/06/22 08:23:11;;;;;;;9.98;6.35;;;26.40;99.90;;;;;;4982502;28;20287;-38
2023/06/22 08:25:37;;;;;;;8.98;6.20;;;26.30;99.90;;;;;;4990449;28;20186;-38
2023/06/22 08:28:04;;;;;;;10.60;6.57;;;26.30;99.90;;;;;;5010360;28;20218;-39
2023/06/22 08:30:30;;;;;;;9.43;6.20;;;26.20;99.90;;;;;;4993856;28;20194;-39
2023/06/22 08:32:56;;;;;;;10.77;6.75;;;26.30;99.90;;;;;;4993313;28;20191;-41
2023/06/22 08:35:23;;;;;;;11.75;6.72;;;26.40;99.90;;;;;;4991300;28;20191;-41
2023/06/22 08:37:54;;;;;;;9.65;6.28;;;26.40;99.90;;;;;;5000062;28;20212;-37
2023/06/22 08:40:20;;;;;;;10.93;5.95;;;26.50;99.90;;;;;;4990496;28;20591;-39
2023/06/22 08:42:47;;;;;;;11.23;6.40;;;26.60;99.90;;;;;;5011875;28;20175;-39
2023/06/22 08:45:13;;;;;;;9.18;5.95;;;26.70;99.90;;;;;;4992535;28;20187;-39
2023/06/22 08:47:41;;;;;;;9.23;6.43;;;26.80;99.90;;;;;;4985164;28;20299;-40
2023/06/22 08:50:11;;;;;;;10.13;5.50;;;26.80;99.90;;;;;;5001207;28;20195;-41
2023/06/22 08:52:38;;;;;;;12.23;6.70;;;26.90;99.90;;;;;;5009844;28;20198;-39
2023/06/22 08:55:04;;;;;;;12.05;6.78;;;27.00;99.90;;;;;;5001354;28;20219;-40
2023/06/22 08:57:32;;;;;;;7.55;5.75;;;27.10;99.90;;;;;;4992943;28;20230;-41
2023/06/22 08:59:58;;;;;;;7.95;5.75;;;27.30;99.90;;;;;;4993177;28;20275;-41
2023/06/22 09:02:25;;;;;;;12.32;6.35;;;27.70;99.90;;;;;;5006674;28;20648;-42
2023/06/22 09:04:55;;;;;;;10.25;6.07;;;28.00;99.90;;;;;;4993623;28;20202;-39
2023/06/22 09:07:23;;;;;;;9.77;6.82;;;28.20;99.90;;;;;;4994433;28;20219;-38
2023/06/22 09:09:49;;;;;;;10.27;6.05;;;28.00;99.90;;;;;;5012995;28;20213;-41
2023/06/22 09:12:15;;;;;;;11.70;6.00;;;28.10;99.90;;;;;;4996543;28;20225;-40
2023/06/22 09:14:41;;;;;;;10.70;5.88;;;28.10;99.90;;;;;;5024850;28;20192;-40
2023/06/22 09:17:06;;;;;;;9.75;6.25;;;28.10;99.90;;;;;;5006511;28;20314;-40
2023/06/22 09:19:32;;;;;;;12.25;6.30;;;28.30;99.90;;;;;;5009764;28;20265;-39
2023/06/22 09:21:59;;;;;;;11.80;6.93;;;28.30;99.90;;;;;;4993462;28;20272;-41
2023/06/22 09:24:25;;;;;;;9.82;6.68;;;28.30;99.90;;;;;;4993914;28;20187;-38
2023/06/22 09:26:51;;;;;;;10.40;6.40;;;28.40;99.90;;;;;;5007181;28;20225;-38
2023/06/22 09:29:17;;;;;;;11.50;6.05;;;28.60;99.90;;;;;;4994722;28;20221;-39
2023/06/22 09:31:44;;;;;;;11.93;6.32;;;28.70;99.90;;;;;;4996258;28;20281;-42
2023/06/22 09:34:09;;;;;;;9.68;6.35;;;28.70;99.90;;;;;;4996420;28;20306;-39
2023/06/22 09:36:36;;;;;;;9.65;6.20;;;28.60;99.90;;;;;;4996248;28;20289;-39
2023/06/22 09:39:06;;;;;;;12.82;6.25;;;28.70;99.90;;;;;;5004910;28;20215;-42
2023/06/22 09:41:32;;;;;;;7.57;5.97;;;28.80;99.90;;;;;;5012760;28;20215;-39
2023/06/22 09:43:57;;;;;;;9.88;6.80;;;28.90;99.90;;;;;;5012416;28;20234;-41
2023/06/22 09:46:25;;;;;;;10.20;6.13;;;29.10;99.90;;;;;;4993546;28;20186;-40
2023/06/22 09:48:51;;;;;;;11.52;6.75;;;29.30;99.90;;;;;;4976464;28;20184;-39
2023/06/22 09:51:18;;;;;;;12.82;6.07;;;29.40;99.90;;;;;;5002356;28;20193;-39
2023/06/22 09:53:45;;;;;;;15.07;6.10;;;29.50;99.90;;;;;;4995908;28;20195;-39
2023/06/22 09:56:14;;;;;;;10.13;6.75;;;29.60;99.90;;;;;;5001135;28;20171;-39
2023/06/22 09:58:44;;;;;;;13.00;6.20;;;29.60;99.90;;;;;;5004440;28;20222;-41
2023/06/22 10:01:11;;;;;;;12.98;6.07;;;29.50;99.90;;;;;;5000849;28;20188;-42
2023/06/22 10:03:37;;;;;;;9.93;6.18;;;29.60;99.90;;;;;;4977371;28;20187;-42
2023/06/22 10:06:04;;;;;;;10.00;6.15;;;29.60;99.90;;;;;;4986501;28;20234;-40
2023/06/22 10:08:31;;;;;;;11.95;6.25;;;29.60;99.90;;;;;;4995369;28;20242;-42
2023/06/22 10:10:57;;;;;;;9.98;6.40;;;29.60;99.90;;;;;;4987636;28;20191;-39
2023/06/22 10:13:23;;;;;;;8.35;6.22;;;29.80;99.90;;;;;;4991139;28;20195;-39
2023/06/22 10:15:51;;;;;;;8.55;6.07;;;30.00;99.90;;;;;;4995135;28;20234;-39
2023/06/22 10:18:18;;;;;;;9.77;5.75;;;30.20;99.90;;;;;;5007708;28;20211;-42
2023/06/22 10:20:48;;;;;;;12.20;6.50;;;30.30;99.90;;;;;;5016916;28;20187;-40
2023/06/22 10:23:15;;;;;;;8.65;5.93;;;30.50;99.90;;;;;;5017314;28;20183;-40
2023/06/22 10:25:42;;;;;;;8.45;6.20;;;30.60;99.90;;;;;;5003760;28;20187;-39
2023/06/22 10:28:08;;;;;;;11.27;5.65;;;30.50;99.90;;;;;;4995090;28;20211;-42
2023/06/22 10:30:34;;;;;;;9.50;5.70;;;30.40;99.90;;;;;;4994299;28;20211;-41
2023/06/22 10:33:00;;;;;;;12.13;6.07;;;30.60;99.90;;;;;;4996769;28;20199;-42
2023/06/22 10:35:26;;;;;;;11.48;6.28;;;30.70;99.90;;;;;;5022273;28;20185;-40
2023/06/22 10:37:56;;;;;;;10.75;6.53;;;30.80;99.90;;;;;;5008019;28;20227;-42
2023/06/22 10:40:22;;;;;;;9.48;6.05;;;31.00;99.90;;;;;;4993950;28;20190;-42
2023/06/22 10:42:47;;;;;;;8.50;6.18;;;31.20;99.90;;;;;;5001680;28;20188;-39
2023/06/22 10:45:13;;;;;;;14.77;6.43;;;31.20;99.90;;;;;;4991812;28;20195;-40
2023/06/22 10:47:42;;;;;;;11.43;6.07;;;31.30;99.90;;;;;;5009510;28;20222;-38
2023/06/22 10:50:08;;;;;;;12.63;6.38;;;31.30;99.90;;;;;;5019385;28;20192;-40
2023/06/22 10:52:35;;;;;;;12.05;6.30;;;31.20;99.90;;;;;;5011114;28;20665;-41
2023/06/22 10:55:01;;;;;;;9.82;6.07;;;31.30;99.90;;;;;;5011275;28;20199;-43
2023/06/22 10:57:27;;;;;;;11.85;6.53;;;31.10;99.90;;;;;;5002705;28;20226;-39
2023/06/22 10:59:54;;;;;;;11.32;6.75;;;31.10;99.90;;;;;;4992421;28;20206;-43
2023/06/22 11:02:20;;;;;;;10.27;6.18;;;31.10;99.90;;;;;;5009998;28;20275;-39
2023/06/22 11:04:47;;;;;;;11.93;6.00;;;31.00;99.90;;;;;;5024298;28;20266;-40
2023/06/22 11:07:13;;;;;;;7.35;5.72;;;31.00;99.90;;;;;;4994235;28;20684;-42
2023/06/22 11:09:39;;;;;;;8.38;6.00;;;31.00;99.90;;;;;;4988793;28;20188;-42
2023/06/22 11:12:06;;;;;;;12.93;6.28;;;31.10;99.90;;;;;;4993986;28;20241;-42
2023/06/22 11:14:33;;;;;;;11.15;5.53;;;31.20;99.90;;;;;;5015071;28;20222;-40
2023/06/22 11:16:59;;;;;;;10.45;6.05;;;31.20;99.90;;;;;;4993464;28;20337;-39
2023/06/22 11:19:26;;;;;;;10.90;6.85;;;31.20;99.90;;;;;;5013054;28;20306;-41
2023/06/22 11:21:52;;;;;;;9.07;5.63;;;31.40;99.90;;;;;;4982743;28;20180;-39
2023/06/22 11:24:18;;;;;;;10.88;6.35;;;31.70;99.90;;;;;;4998959;28;20191;-42
2023/06/22 11:26:44;;;;;;;8.38;5.93;;;31.80;99.90;;;;;;4999160;28;20211;-40
2023/06/22 11:29:10;;;;;;;10.38;6.25;;;32.00;99.90;;;;;;5007098;28;20187;-42
2023/06/22 11:31:35;;;;;;;9.70;6.45;;;32.00;99.90;;;;;;4994018;28;20194;-37
2023/06/22 11:34:03;;;;;;;12.77;6.53;;;31.90;99.90;;;;;;4993741;28;20186;-43
2023/06/22 11:36:32;;;;;;;12.50;6.60;;;31.70;99.90;;;;;;5006044;28;20203;-42
2023/06/22 11:38:58;;;;;;;10.32;6.60;;;31.40;99.90;;;;;;5005879;28;20207;-39
2023/06/22 11:41:24;;;;;;;9.32;6.55;;;31.10;99.90;;;;;;5009068;28;20191;-42
2023/06/22 11:43:51;;;;;;;10.35;6.40;;;31.10;99.90;;;;;;4989413;28;20187;-40
2023/06/22 11:46:17;;;;;;;10.88;6.43;;;30.90;99.90;;;;;;4969106;28;20189;-41
2023/06/22 11:48:43;;;;;;;12.68;6.35;;;30.90;99.90;;;;;;4993763;28;20183;-40
2023/06/22 11:51:09;;;;;;;12.57;6.38;;;30.80;99.90;;;;;;4993454;28;20179;-45
2023/06/22 11:53:35;;;;;;;10.18;6.60;;;30.70;99.90;;;;;;4998928;28;20241;-42
2023/06/22 11:56:01;;;;;;;12.80;6.45;;;30.50;99.90;;;;;;4985769;28;20195;-40
2023/06/22 11:58:28;;;;;;;9.60;6.57;;;30.40;99.90;;;;;;4992371;28;20239;-42
2023/06/22 12:00:56;;;;;;;10.57;5.97;;;30.30;99.90;;;;;;5002944;28;20194;-39
2023/06/22 12:03:23;;;;;;;10.25;6.63;;;30.30;99.90;;;;;;5006250;28;20237;-40
2023/06/22 12:05:53;;;;;;;11.57;6.43;;;30.40;99.90;;;;;;4996211;28;20172;-41
2023/06/22 12:08:20;;;;;;;10.43;6.70;;;30.40;99.90;;;;;;5001236;28;20318;-43
2023/06/22 12:10:50;;;;;;;11.25;6.88;;;30.20;99.90;;;;;;5015352;28;20238;-39
2023/06/22 12:13:16;;;;;;;9.57;6.10;;;30.10;99.90;;;;;;4991867;28;20225;-39
2023/06/22 12:15:42;;;;;;;10.13;6.63;;;30.20;99.90;;;;;;5002250;28;20188;-42
2023/06/22 12:18:09;;;;;;;9.35;6.30;;;30.20;99.90;;;;;;5003826;28;20214;-40
2023/06/22 12:20:35;;;;;;;7.90;5.78;;;30.20;99.90;;;;;;5003472;28;20184;-42
2023/06/22 12:23:02;;;;;;;10.07;6.43;;;30.20;99.90;;;;;;5008834;28;20696;-39
2023/06/22 12:25:28;;;;;;;11.65;6.40;;;30.20;99.90;;;;;;5013570;28;20222;-43
2023/06/22 12:27:55;;;;;;;10.15;6.82;;;30.30;99.90;;;;;;5002353;28;20213;-42
2023/06/22 12:30:22;;;;;;;10.52;6.82;;;30.30;99.90;;;;;;5012027;28;20184;-40
2023/06/22 12:32:49;;;;;;;11.07;6.70;;;30.20;99.90;;;;;;5001098;28;20286;-39
2023/06/22 12:35:15;;;;;;;10.95;6.65;;;30.10;99.90;;;;;;4991501;28;20191;-42
2023/06/22 12:37:44;;;;;;;10.52;6.15;;;30.00;99.90;;;;;;4991226;28;20215;-42
2023/06/22 12:40:11;;;;;;;10.98;6.50;;;30.00;99.90;;;;;;5009329;28;20253;-40
2023/06/22 12:42:36;;;;;;;10.98;6.65;;;30.00;99.90;;;;;;5012670;28;20223;-40